Time;durP1;ratioP1;P1;durP2;ratioP2;P2;SDS_P1;SDS_P2;PMS_P1;PMS_P2;Temp;Humidity;BMP_temperature;BMP_pressure;BME280_temperature;BME280_humidity;BME280_pressure;Samples;Min_cycle;Max_cycle;Signal;HPM_P1;HPM_P2
2023/08/18 00:00:20;;;;;;;7.10;5.60;;;;;;;21.03;100.00;99648.50;109613;1250;74403;-70
2023/08/18 00:02:47;;;;;;;7.60;6.80;;;;;;;21.01;100.00;99651.64;109644;1250;67329;-70
2023/08/18 00:05:13;;;;;;;6.40;5.80;;;;;;;20.92;100.00;99652.94;109672;1250;72559;-70
2023/08/18 00:07:41;;;;;;;6.80;6.20;;;;;;;20.90;100.00;99655.21;109677;1250;61981;-72
2023/08/18 00:10:08;;;;;;;6.80;6.10;;;;;;;20.87;100.00;99657.42;109612;1250;60228;-70
2023/08/18 00:12:35;;;;;;;6.50;5.80;;;;;;;20.79;100.00;99657.60;109681;1250;73429;-72
2023/08/18 00:15:02;;;;;;;7.30;6.40;;;;;;;20.74;100.00;99662.28;109663;1250;66371;-70
2023/08/18 00:17:28;;;;;;;6.90;6.30;;;;;;;20.74;100.00;99655.13;109682;1250;73181;-71
2023/08/18 00:19:55;;;;;;;6.80;5.80;;;;;;;20.65;100.00;99656.31;109630;1250;60420;-72
2023/08/18 00:22:22;;;;;;;6.70;6.10;;;;;;;20.60;100.00;99653.95;109639;1250;59470;-72
2023/08/18 00:24:48;;;;;;;7.00;6.20;;;;;;;20.56;100.00;99657.57;109699;1250;59543;-70
2023/08/18 00:27:15;;;;;;;7.30;6.60;;;;;;;20.55;100.00;99658.38;109704;1250;59072;-70
2023/08/18 00:29:42;;;;;;;7.90;6.50;;;;;;;20.49;100.00;99657.92;109527;1250;72847;-73
2023/08/18 00:32:09;;;;;;;6.40;5.90;;;;;;;20.41;100.00;99659.55;109519;1250;58988;-73
2023/08/18 00:34:37;;;;;;;7.30;6.10;;;;;;;20.37;100.00;99655.77;109464;1250;58948;-73
2023/08/18 00:37:04;;;;;;;7.70;6.20;;;;;;;20.36;100.00;99657.53;109423;1250;74740;-72
2023/08/18 00:39:31;;;;;;;7.40;6.00;;;;;;;20.37;100.00;99656.61;109554;1250;67944;-72
2023/08/18 00:41:57;;;;;;;6.60;5.90;;;;;;;20.41;100.00;99659.91;109665;1250;71197;-74
2023/08/18 00:44:24;;;;;;;6.90;6.30;;;;;;;20.43;100.00;99663.88;109505;1250;60433;-70
2023/08/18 00:46:51;;;;;;;6.80;6.20;;;;;;;20.43;100.00;99664.70;109489;1251;60170;-72
2023/08/18 00:49:17;;;;;;;6.70;6.20;;;;;;;20.44;100.00;99666.18;109452;1251;73451;-71
2023/08/18 00:51:44;;;;;;;7.80;5.80;;;;;;;20.44;100.00;99661.36;109494;1250;66396;-70
2023/08/18 00:54:12;;;;;;;6.90;6.00;;;;;;;20.41;100.00;99659.51;109397;1250;72888;-70
2023/08/18 00:56:39;;;;;;;6.50;5.90;;;;;;;20.39;100.00;99661.77;109516;1250;61916;-71
2023/08/18 00:59:09;;;;;;;5.50;5.10;;;;;;;20.38;100.00;99660.91;109461;1250;60847;-69
2023/08/18 01:01:36;;;;;;;8.90;5.00;;;;;;;20.37;100.00;99662.27;109426;1250;74208;-71
2023/08/18 01:04:03;;;;;;;6.20;5.60;;;;;;;20.35;100.00;99657.30;109516;1250;67601;-70
2023/08/18 01:06:32;;;;;;;5.80;5.40;;;;;;;20.33;100.00;99659.27;109548;1250;71299;-73
2023/08/18 01:09:00;;;;;;;7.00;5.80;;;;;;;20.29;100.00;99657.30;109512;1250;58978;-72
2023/08/18 01:11:45;;;;;;;6.10;5.60;;;;;;;20.22;100.00;99654.67;109654;1250;59017;-70
2023/08/18 01:14:11;;;;;;;6.30;5.50;;;;;;;20.15;100.00;99653.73;109681;1250;74455;-70
2023/08/18 01:16:38;;;;;;;5.90;5.30;;;;;;;20.09;100.00;99657.56;109646;1250;66599;-70
2023/08/18 01:19:04;;;;;;;6.30;5.30;;;;;;;20.05;100.00;99660.20;109577;1250;58910;-71
2023/08/18 01:21:31;;;;;;;5.70;5.20;;;;;;;20.01;100.00;99659.65;109437;1250;62042;-71
2023/08/18 01:24:00;;;;;;;6.10;5.50;;;;;;;19.98;100.00;99662.54;109433;1250;59005;-72
2023/08/18 01:26:28;;;;;;;8.30;6.40;;;;;;;19.93;100.00;99664.71;109570;1251;74863;-70
2023/08/18 01:28:55;;;;;;;5.70;5.20;;;;;;;19.89;100.00;99664.17;109543;1250;67888;-72
2023/08/18 01:31:27;;;;;;;6.10;5.40;;;;;;;19.84;100.00;99667.42;109660;1250;59018;-72
2023/08/18 01:33:56;;;;;;;5.50;5.10;;;;;;;19.81;100.00;99666.52;109616;1250;61760;-70
2023/08/18 01:36:23;;;;;;;6.80;5.00;;;;;;;19.79;100.00;99665.75;109649;1250;58846;-71
2023/08/18 01:38:51;;;;;;;5.50;5.10;;;;;;;19.78;100.00;99667.55;109497;1250;73521;-71
2023/08/18 01:41:20;;;;;;;5.80;5.30;;;;;;;19.77;100.00;99664.23;109485;1250;67781;-73
2023/08/18 01:43:47;;;;;;;5.90;5.40;;;;;;;19.78;100.00;99661.44;109517;1250;72376;-72
2023/08/18 01:46:13;;;;;;;6.40;5.40;;;;;;;19.80;100.00;99661.79;109632;1250;58899;-73
2023/08/18 01:48:40;;;;;;;5.90;5.30;;;;;;;19.79;100.00;99663.17;109601;1250;60117;-72
2023/08/18 01:51:07;;;;;;;6.30;5.40;;;;;;;19.77;100.00;99660.07;109617;1250;74879;-70
2023/08/18 01:53:33;;;;;;;7.20;6.40;;;;;;;19.77;100.00;99656.30;109570;1249;66604;-70
2023/08/18 01:56:03;;;;;;;5.70;5.30;;;;;;;19.77;100.00;99654.35;109650;1250;71658;-70
2023/08/18 01:58:30;;;;;;;5.60;5.20;;;;;;;19.76;100.00;99651.30;109512;1250;60390;-71
2023/08/18 02:00:56;;;;;;;5.60;5.10;;;;;;;19.73;100.00;99647.61;109573;1251;60211;-70
2023/08/18 02:03:24;;;;;;;5.80;4.50;;;;;;;19.73;100.00;99647.11;109679;1250;74648;-71
2023/08/18 02:05:52;;;;;;;6.00;5.40;;;;;;;19.72;100.00;99645.30;109701;1250;67870;-72
2023/08/18 02:08:20;;;;;;;6.30;5.60;;;;;;;19.71;100.00;99649.76;109635;1250;70960;-72
2023/08/18 02:10:47;;;;;;;6.60;5.90;;;;;;;19.69;100.00;99646.96;109579;1250;60161;-73
2023/08/18 02:13:14;;;;;;;6.30;5.80;;;;;;;19.67;100.00;99646.58;109586;1251;60143;-70
2023/08/18 02:15:41;;;;;;;6.10;5.40;;;;;;;19.63;100.00;99646.23;109598;1250;74635;-70
2023/08/18 02:18:07;;;;;;;5.20;4.70;;;;;;;19.59;100.00;99647.36;109551;1250;67698;-69
2023/08/18 02:20:36;;;;;;;5.60;4.90;;;;;;;19.57;100.00;99646.77;109558;1250;72472;-72
2023/08/18 02:23:03;;;;;;;7.50;5.10;;;;;;;19.55;100.00;99646.86;109570;1250;62698;-71
2023/08/18 02:25:29;;;;;;;5.90;5.40;;;;;;;19.53;100.00;99645.93;109643;1250;60067;-69
2023/08/18 02:27:56;;;;;;;6.40;5.10;;;;;;;19.53;100.00;99647.38;109648;1253;74678;-72
2023/08/18 02:30:23;;;;;;;7.20;5.10;;;;;;;19.54;100.00;99644.35;109567;1250;66810;-69
2023/08/18 02:32:50;;;;;;;5.90;5.40;;;;;;;19.55;100.00;99639.67;109622;1250;72630;-70
2023/08/18 02:35:17;;;;;;;6.40;5.10;;;;;;;19.56;100.00;99643.48;109654;1250;60456;-70
2023/08/18 02:37:44;;;;;;;5.60;4.90;;;;;;;19.56;100.00;99642.91;109516;1250;60253;-71
2023/08/18 02:40:11;;;;;;;5.40;4.90;;;;;;;19.56;100.00;99646.81;109566;1250;74422;-71
2023/08/18 02:42:37;;;;;;;7.30;5.10;;;;;;;19.54;100.00;99649.16;109671;1249;67891;-71
2023/08/18 02:45:04;;;;;;;6.30;5.60;;;;;;;19.53;100.00;99648.09;109603;1251;71234;-71
2023/08/18 02:47:34;;;;;;;6.00;4.90;;;;;;;19.51;100.00;99645.13;109671;1250;61038;-70
2023/08/18 02:50:00;;;;;;;6.80;5.20;;;;;;;19.48;100.00;99647.36;109609;1250;60252;-70
2023/08/18 02:52:27;;;;;;;6.20;5.60;;;;;;;19.46;100.00;99646.09;109612;1250;74511;-71
2023/08/18 02:54:54;;;;;;;8.10;5.10;;;;;;;19.42;100.00;99646.50;109644;1250;67734;-70
2023/08/18 02:57:20;;;;;;;5.30;4.80;;;;;;;19.39;100.00;99647.91;109623;1250;72723;-72
2023/08/18 02:59:47;;;;;;;7.20;5.30;;;;;;;19.39;100.00;99649.61;109550;1250;60148;-72
2023/08/18 03:02:14;;;;;;;9.70;4.80;;;;;;;19.40;100.00;99646.86;109640;1250;60124;-70
2023/08/18 03:04:40;;;;;;;5.70;5.20;;;;;;;19.40;100.00;99643.58;109647;1250;73448;-70
2023/08/18 03:07:07;;;;;;;6.30;5.20;;;;;;;19.37;100.00;99643.85;109580;1250;67052;-70
2023/08/18 03:09:33;;;;;;;6.60;6.00;;;;;;;19.31;100.00;99636.63;109666;1250;59067;-69
2023/08/18 03:12:00;;;;;;;7.80;5.00;;;;;;;19.25;100.00;99638.44;109611;1250;59040;-72
2023/08/18 03:14:26;;;;;;;6.00;5.40;;;;;;;19.21;100.00;99641.71;109605;1250;60249;-70
2023/08/18 03:16:53;;;;;;;5.80;5.20;;;;;;;19.20;100.00;99642.20;109600;1250;59498;-71
2023/08/18 03:19:19;;;;;;;6.20;5.40;;;;;;;19.21;100.00;99642.41;109628;1250;65463;-72
2023/08/18 03:21:47;;;;;;;10.30;5.60;;;;;;;19.23;100.00;99644.05;109659;1250;72384;-71
2023/08/18 03:24:13;;;;;;;6.80;5.20;;;;;;;19.29;100.00;99646.65;109637;1250;60910;-72
2023/08/18 03:26:40;;;;;;;6.60;5.50;;;;;;;19.40;100.00;99647.98;109642;1250;58977;-70
2023/08/18 03:29:06;;;;;;;7.00;5.90;;;;;;;19.54;100.00;99646.96;109649;1250;74152;-73
2023/08/18 03:31:33;;;;;;;6.20;5.10;;;;;;;19.69;100.00;99652.19;109703;1250;58979;-72
2023/08/18 03:34:00;;;;;;;7.80;6.70;;;;;;;19.87;100.00;99648.33;109681;1250;72502;-72
2023/08/18 03:36:26;;;;;;;11.60;5.30;;;;;;;20.07;100.00;99652.64;109679;1250;60305;-74
2023/08/18 03:38:53;;;;;;;7.50;5.80;;;;;;;20.29;100.00;99651.93;109612;1250;58969;-72
2023/08/18 03:41:19;;;;;;;6.60;5.80;;;;;;;20.51;100.00;99652.37;109562;1250;73813;-72
2023/08/18 03:43:46;;;;;;;7.00;5.60;;;;;;;20.72;100.00;99650.05;109646;1250;66394;-69
2023/08/18 03:46:25;;;;;;;7.60;6.00;;;;;;;20.91;100.00;99649.79;109668;1250;71257;-72
2023/08/18 03:48:56;;;;;;;6.30;5.10;;;;;;;21.13;100.00;99646.61;109524;1250;60087;-72
2023/08/18 03:51:22;;;;;;;8.00;6.20;;;;;;;21.36;100.00;99646.60;109577;1250;60123;-71
2023/08/18 03:53:49;;;;;;;7.20;6.10;;;;;;;21.58;100.00;99648.68;109588;1253;74323;-70
2023/08/18 03:56:16;;;;;;;6.60;5.90;;;;;;;21.76;100.00;99648.16;109515;1250;68509;-71
2023/08/18 03:58:43;;;;;;;7.70;5.40;;;;;;;21.96;100.00;99648.41;109522;1250;72802;-72
2023/08/18 04:01:09;;;;;;;7.80;5.50;;;;;;;22.17;100.00;99644.70;109628;1250;60866;-71
2023/08/18 04:03:38;;;;;;;6.10;5.20;;;;;;;22.38;100.00;99651.88;109570;1250;60199;-72
2023/08/18 04:06:05;;;;;;;5.60;5.10;;;;;;;22.58;100.00;99653.35;109658;1250;74020;-71
2023/08/18 04:08:39;;;;;;;6.60;6.00;;;;;;;22.81;100.00;99654.09;109676;1250;67671;-71
2023/08/18 04:11:06;;;;;;;6.60;5.90;;;;;;;23.03;100.00;99653.39;109651;1250;72477;-70
2023/08/18 04:13:32;;;;;;;7.60;5.10;;;;;;;23.14;100.00;99651.61;109643;1250;60130;-72
2023/08/18 04:15:59;;;;;;;7.40;6.10;;;;;;;23.27;100.00;99649.47;109549;1250;60096;-72
2023/08/18 04:18:26;;;;;;;8.00;6.00;;;;;;;23.46;100.00;99649.30;109580;1250;75058;-71
2023/08/18 04:20:53;;;;;;;6.00;5.50;;;;;;;23.63;100.00;99648.84;109632;1250;67620;-71
2023/08/18 04:23:20;;;;;;;6.30;5.60;;;;;;;23.79;100.00;99647.26;109529;1250;72607;-72
2023/08/18 04:25:47;;;;;;;6.70;5.90;;;;;;;23.98;100.00;99651.59;109641;1250;58988;-72
2023/08/18 04:28:14;;;;;;;7.70;5.80;;;;;;;24.22;100.00;99648.75;109580;1250;58972;-70
2023/08/18 04:30:40;;;;;;;7.50;6.00;;;;;;;24.40;100.00;99648.90;109648;1251;75047;-71
2023/08/18 04:33:12;;;;;;;6.40;5.90;;;;;;;24.56;100.00;99645.89;109323;1251;67630;-72
2023/08/18 04:35:39;;;;;;;6.50;5.50;;;;;;;24.73;100.00;99646.83;109458;1250;72889;-70
2023/08/18 04:38:07;;;;;;;6.60;6.00;;;;;;;24.85;100.00;99647.56;109531;1250;59405;-71
2023/08/18 04:40:34;;;;;;;5.60;5.10;;;;;;;25.01;100.00;99642.80;109629;1250;60138;-72
2023/08/18 04:43:01;;;;;;;5.60;5.10;;;;;;;25.16;100.00;99643.95;109606;1250;73227;-73
2023/08/18 04:45:27;;;;;;;6.70;5.70;;;;;;;25.31;100.00;99647.44;109569;1250;67608;-71
2023/08/18 04:47:54;;;;;;;7.20;5.50;;;;;;;25.49;100.00;99644.52;109643;1250;71203;-70
2023/08/18 04:50:25;;;;;;;8.60;5.50;;;;;;;25.67;100.00;99645.08;109536;1250;59258;-70
2023/08/18 04:52:52;;;;;;;5.70;5.10;;;;;;;25.85;100.00;99648.87;109612;1250;58962;-73
2023/08/18 04:55:19;;;;;;;6.80;5.10;;;;;;;25.95;100.00;99651.91;109544;1250;74456;-72
2023/08/18 04:57:46;;;;;;;6.40;5.70;;;;;;;26.08;100.00;99655.02;109553;1250;66435;-72
2023/08/18 05:00:13;;;;;;;6.10;5.00;;;;;;;26.22;100.00;99656.52;109507;1251;72351;-69
2023/08/18 05:02:39;;;;;;;5.50;4.80;;;;;;;26.37;100.00;99658.48;109678;1251;59221;-72
2023/08/18 05:05:06;;;;;;;7.40;4.90;;;;;;;26.53;100.00;99660.30;109615;1250;60325;-72
2023/08/18 05:07:33;;;;;;;5.50;5.10;;;;;;;26.69;100.00;99663.23;109668;1250;74425;-71
2023/08/18 05:10:00;;;;;;;5.80;5.30;;;;;;;26.85;100.00;99661.80;109683;1250;67986;-70
2023/08/18 05:12:27;;;;;;;7.70;5.00;;;;;;;27.04;100.00;99664.16;109576;1250;71468;-72
2023/08/18 05:14:55;;;;;;;6.10;5.00;;;;;;;27.29;100.00;99662.63;109294;1250;441086;-71
2023/08/18 05:17:21;;;;;;;9.40;4.90;;;;;;;27.72;100.00;99657.23;109670;1250;60257;-70
2023/08/18 05:19:48;;;;;;;7.20;4.90;;;;;;;28.20;100.00;99661.87;109670;1250;74440;-72
2023/08/18 05:22:14;;;;;;;4.80;4.30;;;;;;;28.47;100.00;99659.87;109593;1250;66920;-73
2023/08/18 05:24:41;;;;;;;5.50;4.90;;;;;;;28.63;100.00;99658.52;109672;1250;72634;-72
2023/08/18 05:27:08;;;;;;;6.80;4.50;;;;;;;28.74;99.18;99659.35;109553;1250;59291;-71
2023/08/18 05:29:34;;;;;;;5.20;4.30;;;;;;;28.63;97.11;99661.48;109624;1250;59003;-71
2023/08/18 05:32:01;;;;;;;6.40;4.50;;;;;;;28.46;97.45;99666.83;109605;1250;74469;-72
2023/08/18 05:34:27;;;;;;;7.00;4.20;;;;;;;28.38;97.27;99661.61;109660;1250;67958;-73
2023/08/18 05:36:54;;;;;;;4.60;4.00;;;;;;;28.35;97.22;99660.05;109493;1253;72898;-72
2023/08/18 05:39:21;;;;;;;8.00;4.70;;;;;;;28.39;97.09;99661.84;109592;1250;60266;-70
2023/08/18 05:41:47;;;;;;;5.80;4.00;;;;;;;28.45;97.85;99662.11;109605;1251;59115;-71
2023/08/18 05:44:14;;;;;;;4.70;3.90;;;;;;;28.60;97.97;99664.45;109646;1250;73506;-75
2023/08/18 05:46:41;;;;;;;4.10;3.80;;;;;;;28.66;96.96;99661.36;109622;1250;66397;-71
2023/08/18 05:49:08;;;;;;;5.60;3.80;;;;;;;28.72;95.30;99668.16;109704;1250;71639;-72
2023/08/18 05:51:34;;;;;;;4.90;3.90;;;;;;;28.75;95.33;99670.61;109482;1250;59282;-73
2023/08/18 05:54:03;;;;;;;3.80;3.50;;;;;;;28.85;95.33;99667.31;109718;1250;60080;-74
2023/08/18 05:56:30;;;;;;;5.80;3.70;;;;;;;28.98;94.20;99667.65;109594;1250;74657;-74
2023/08/18 05:58:56;;;;;;;4.80;3.80;;;;;;;29.02;92.39;99669.53;109690;1250;67669;-78
2023/08/18 06:01:25;;;;;;;6.10;3.80;;;;;;;29.10;92.77;99671.11;109639;1250;72459;-76
2023/08/18 06:03:51;;;;;;;6.40;3.90;;;;;;;29.20;91.39;99668.80;109582;1250;60339;-76
2023/08/18 06:06:21;;;;;;;4.70;3.90;;;;;;;29.26;91.80;99668.70;109584;1250;60297;-79
2023/08/18 06:08:48;;;;;;;5.50;3.40;;;;;;;29.39;91.84;99665.95;109466;1250;75132;-79
2023/08/18 06:11:15;;;;;;;4.60;3.50;;;;;;;29.49;90.84;99670.95;109652;1250;67816;-74
2023/08/18 06:13:42;;;;;;;4.40;3.60;;;;;;;29.60;89.66;99669.14;109622;1250;72691;-70
2023/08/18 06:16:09;;;;;;;4.40;3.70;;;;;;;29.82;89.60;99668.16;109630;1250;59068;-75
2023/08/18 06:18:35;;;;;;;3.30;3.00;;;;;;;30.00;87.01;99667.23;109563;1253;58880;-76
2023/08/18 06:21:02;;;;;;;5.40;3.50;;;;;;;30.05;84.80;99668.98;109458;1250;74721;-74
2023/08/18 06:23:29;;;;;;;4.80;3.10;;;;;;;30.10;86.00;99667.27;109752;1250;66435;-76
2023/08/18 06:25:57;;;;;;;3.30;3.00;;;;;;;30.30;85.08;99667.84;109707;1250;72738;-76
2023/08/18 06:28:25;;;;;;;3.70;3.10;;;;;;;30.50;81.25;99664.95;109560;1250;61190;-74
2023/08/18 06:30:52;;;;;;;3.50;3.10;;;;;;;30.58;79.86;99667.32;109685;1250;60332;-73
2023/08/18 06:33:18;;;;;;;3.90;3.30;;;;;;;30.64;79.60;99669.75;109729;1250;74690;-76
2023/08/18 06:35:47;;;;;;;3.70;3.40;;;;;;;30.70;78.99;99668.39;109724;1250;68601;-73
2023/08/18 06:38:14;;;;;;;4.80;3.40;;;;;;;30.80;79.34;99668.34;109534;1250;72901;-72
2023/08/18 06:40:43;;;;;;;5.70;3.90;;;;;;;30.92;77.65;99665.23;109659;1250;60101;-74
2023/08/18 06:43:10;;;;;;;5.60;3.60;;;;;;;30.88;76.28;99664.33;109564;1250;60112;-68
2023/08/18 06:45:37;;;;;;;5.70;3.70;;;;;;;30.88;77.89;99665.91;109685;1250;73933;-76
2023/08/18 06:48:04;;;;;;;5.60;3.20;;;;;;;31.03;78.49;99665.38;109578;1250;66525;-76
2023/08/18 06:50:31;;;;;;;4.20;3.30;;;;;;;31.13;76.62;99663.71;109594;1250;71306;-74
2023/08/18 06:52:57;;;;;;;3.30;3.00;;;;;;;31.16;76.89;99663.30;109592;1250;60829;-75
2023/08/18 06:55:24;;;;;;;4.30;2.90;;;;;;;31.20;76.08;99664.05;109611;1250;58860;-75
2023/08/18 06:58:04;;;;;;;4.60;2.90;;;;;;;31.27;73.20;99660.64;109675;1250;74666;-71
2023/08/18 07:00:30;;;;;;;7.00;3.10;;;;;;;31.19;72.41;99664.55;109661;1250;67757;-75
2023/08/18 07:02:57;;;;;;;4.70;2.70;;;;;;;31.04;74.33;99662.83;109427;1250;72987;-75
2023/08/18 07:05:25;;;;;;;4.10;3.10;;;;;;;30.97;72.82;99664.48;109500;1250;60299;-76
2023/08/18 07:07:53;;;;;;;6.50;2.70;;;;;;;30.96;73.58;99662.36;109431;1250;60008;-79
2023/08/18 07:10:20;;;;;;;3.50;2.70;;;;;;;31.07;75.34;99661.36;109439;1249;73728;-75
2023/08/18 07:12:47;;;;;;;3.30;2.40;;;;;;;31.20;75.47;99660.63;109431;1250;67050;-72
2023/08/18 07:15:14;;;;;;;4.70;2.60;;;;;;;31.42;76.66;99657.07;109525;1250;73128;-75
2023/08/18 07:17:40;;;;;;;4.40;2.80;;;;;;;31.69;75.34;99658.67;109603;1250;60432;-76
2023/08/18 07:20:10;;;;;;;4.00;2.70;;;;;;;31.97;73.60;99657.85;109658;1250;59841;-70
2023/08/18 07:22:37;;;;;;;4.80;2.60;;;;;;;32.05;73.44;99658.59;109622;1250;73809;-73
2023/08/18 07:25:04;;;;;;;4.70;2.80;;;;;;;32.27;73.88;99658.38;109569;1250;67594;-73
2023/08/18 07:27:31;;;;;;;4.70;3.10;;;;;;;32.49;72.73;99661.43;109703;1250;71247;-74
2023/08/18 07:29:58;;;;;;;3.40;3.10;;;;;;;32.51;73.51;99658.57;109593;1251;59683;-74
2023/08/18 07:32:24;;;;;;;4.40;3.80;;;;;;;32.59;73.34;99656.44;109652;1250;58955;-74
2023/08/18 07:34:51;;;;;;;5.80;3.80;;;;;;;32.69;71.97;99658.77;109661;1250;74791;-75
2023/08/18 07:37:17;;;;;;;4.50;3.80;;;;;;;32.75;70.47;99658.52;109684;1250;67769;-74
2023/08/18 07:40:09;;;;;;;4.00;3.40;;;;;;;32.79;70.89;99661.34;109635;1250;74523;-73
2023/08/18 07:42:39;;;;;;;3.80;2.60;;;;;;;32.91;69.22;99660.40;109668;1250;59484;-74
2023/08/18 07:45:06;;;;;;;2.80;2.20;;;;;;;32.97;65.71;99660.05;109696;1250;60417;-74
2023/08/18 07:47:34;;;;;;;5.90;3.10;;;;;;;32.95;65.27;99657.31;109662;1250;74728;-74
2023/08/18 07:50:00;;;;;;;3.30;2.10;;;;;;;32.88;65.88;99655.45;109696;1250;66681;-74
2023/08/18 07:52:27;;;;;;;2.80;2.00;;;;;;;32.96;61.17;99653.96;109716;1250;71095;-74
2023/08/18 07:54:54;;;;;;;2.20;2.00;;;;;;;32.92;60.86;99652.05;109736;1250;60318;-74
2023/08/18 07:57:21;;;;;;;2.70;2.50;;;;;;;32.79;62.10;99653.14;109671;1250;60142;-74
2023/08/18 07:59:47;;;;;;;3.30;1.90;;;;;;;32.56;61.59;99655.33;109673;1250;73493;-75
2023/08/18 08:02:14;;;;;;;4.20;1.90;;;;;;;32.27;61.86;99652.98;109655;1250;68010;-75
2023/08/18 08:04:55;;;;;;;3.50;2.30;;;;;;;32.04;65.16;99653.71;109554;1250;71441;-75
2023/08/18 08:07:22;;;;;;;4.00;3.00;;;;;;;32.04;68.01;99652.43;109641;1250;60123;-75
2023/08/18 08:09:49;;;;;;;7.10;2.60;;;;;;;32.00;70.98;99651.08;109695;1251;59284;-75
2023/08/18 08:12:16;;;;;;;4.00;2.10;;;;;;;31.98;66.57;99657.77;109708;1250;75082;-74
2023/08/18 08:14:43;;;;;;;5.60;2.50;;;;;;;32.01;64.00;99659.87;109714;1250;67569;-74
2023/08/18 08:17:09;;;;;;;2.50;2.30;;;;;;;31.96;64.25;99652.63;109690;1250;72654;-74
2023/08/18 08:19:36;;;;;;;2.60;2.40;;;;;;;31.91;64.42;99652.02;109645;1250;59976;-75
2023/08/18 08:22:09;;;;;;;2.80;1.90;;;;;;;32.04;64.53;99656.63;109650;1250;58907;-76
2023/08/18 08:24:36;;;;;;;2.20;2.00;;;;;;;32.07;62.69;99655.41;109494;1250;74348;-75
2023/08/18 08:27:03;;;;;;;2.00;1.80;;;;;;;32.06;63.78;99652.90;109670;1250;66502;-75
2023/08/18 08:29:29;;;;;;;3.80;1.80;;;;;;;32.16;63.79;99653.55;109690;1250;72680;-75
2023/08/18 08:31:56;;;;;;;2.50;1.80;;;;;;;32.38;63.02;99656.92;109674;1250;60019;-75
2023/08/18 08:34:22;;;;;;;3.60;2.10;;;;;;;32.60;64.68;99658.33;109674;1250;59015;-73
2023/08/18 08:36:49;;;;;;;2.30;2.00;;;;;;;32.60;60.82;99660.81;109653;1250;74398;-75
2023/08/18 08:39:16;;;;;;;4.70;2.30;;;;;;;32.43;61.51;99659.70;109705;1250;67727;-73
2023/08/18 08:41:43;;;;;;;2.80;2.50;;;;;;;32.35;60.82;99658.65;109709;1250;72411;-74
2023/08/18 08:44:09;;;;;;;3.60;2.10;;;;;;;32.40;58.60;99661.96;109608;1250;59957;-73
2023/08/18 08:46:40;;;;;;;1.90;1.70;;;;;;;32.21;55.81;99659.34;109648;1250;58994;-74
2023/08/18 08:49:07;;;;;;;2.10;1.80;;;;;;;31.92;55.52;99656.68;109598;1250;74667;-74
2023/08/18 08:51:36;;;;;;;3.40;2.10;;;;;;;31.72;55.85;99657.71;109708;1251;66624;-73
2023/08/18 08:54:03;;;;;;;4.60;2.20;;;;;;;31.55;58.25;99651.61;109630;1250;72351;-74
2023/08/18 08:56:31;;;;;;;2.10;1.80;;;;;;;31.53;60.95;99653.52;109684;1250;60369;-74
2023/08/18 08:58:58;;;;;;;2.40;2.00;;;;;;;31.68;61.01;99656.59;109694;1250;60260;-74
2023/08/18 09:01:24;;;;;;;2.80;1.60;;;;;;;31.76;60.83;99656.53;109563;1250;73172;-74
2023/08/18 09:03:51;;;;;;;3.90;2.50;;;;;;;31.86;59.94;99657.86;109731;1250;68006;-75
2023/08/18 09:06:18;;;;;;;2.20;1.80;;;;;;;31.97;58.41;99657.52;109573;1250;72862;-74
2023/08/18 09:08:45;;;;;;;2.40;1.80;;;;;;;32.13;57.49;99661.97;109684;1250;60395;-73
2023/08/18 09:11:11;;;;;;;4.40;2.10;;;;;;;32.10;58.31;99661.30;109695;1250;58853;-73
2023/08/18 09:13:39;;;;;;;2.90;1.80;;;;;;;32.03;58.19;99660.49;109511;1250;74438;-70
2023/08/18 09:16:06;;;;;;;4.00;1.90;;;;;;;32.00;57.69;99666.16;109755;1255;66421;-74
2023/08/18 09:18:33;;;;;;;2.40;1.70;;;;;;;31.92;55.16;99670.38;109651;1250;71561;-74
2023/08/18 09:21:06;;;;;;;3.80;1.50;;;;;;;31.77;54.43;99664.67;109610;1250;58985;-73
2023/08/18 09:23:33;;;;;;;6.10;1.80;;;;;;;31.80;53.94;99664.83;109548;1255;59041;-70
2023/08/18 09:25:59;;;;;;;1.60;1.50;;;;;;;31.83;53.65;99664.73;109704;1250;74435;-68
2023/08/18 09:28:26;;;;;;;2.10;1.70;;;;;;;31.86;53.61;99667.20;109657;1250;59124;-73
2023/08/18 09:30:52;;;;;;;2.20;1.50;;;;;;;31.91;53.71;99671.98;109605;1250;72714;-71
2023/08/18 09:33:25;;;;;;;1.50;1.40;;;;;;;31.94;53.57;99669.85;109577;1250;59455;-70
2023/08/18 09:35:57;;;;;;;2.90;1.60;;;;;;;32.06;53.41;99675.23;109651;1251;60418;-74
2023/08/18 09:38:25;;;;;;;3.20;1.50;;;;;;;32.14;52.45;99672.98;109642;1253;74550;-71
2023/08/18 09:40:58;;;;;;;2.30;1.70;;;;;;;32.14;52.90;99669.45;109611;1251;68866;-72
2023/08/18 09:43:25;;;;;;;1.70;1.60;;;;;;;32.17;52.43;99665.74;109591;1250;72654;-77
2023/08/18 09:45:54;;;;;;;4.40;1.90;;;;;;;32.06;52.39;99665.38;109612;1250;58945;-68
2023/08/18 09:48:22;;;;;;;2.60;1.80;;;;;;;31.86;52.87;99660.50;109663;1251;61523;-76
2023/08/18 09:50:49;;;;;;;3.10;1.80;;;;;;;31.78;53.81;99662.90;109695;1251;74392;-71
2023/08/18 09:53:16;;;;;;;2.70;1.70;;;;;;;31.70;53.94;99666.19;109637;1250;68218;-72
2023/08/18 09:55:44;;;;;;;2.50;1.70;;;;;;;31.45;55.03;99669.83;109524;1251;72945;-74
2023/08/18 09:58:49;;;;;;;6.00;1.70;;;;;;;31.42;54.85;99671.25;109508;1251;58990;-74
2023/08/18 10:01:16;;;;;;;3.00;2.00;;;;;;;31.58;54.42;99662.84;108987;1262;59612;-73
2023/08/18 10:03:43;;;;;;;1.80;1.50;;;;;;;31.91;55.57;99662.21;109320;1251;74698;-73
2023/08/18 10:06:10;;;;;;;2.10;1.90;;;;;;;32.26;53.49;99662.09;109533;1250;59006;-71
2023/08/18 10:08:37;;;;;;;2.30;1.60;;;;;;;32.33;53.60;99665.08;109343;1251;71473;-71
2023/08/18 10:11:04;;;;;;;3.70;1.80;;;;;;;32.48;52.10;99662.43;109631;1251;60026;-75
2023/08/18 10:13:31;;;;;;;3.30;2.00;;;;;;;32.59;52.95;99666.73;109678;1250;60167;-70
2023/08/18 10:15:58;;;;;;;2.30;1.70;;;;;;;32.58;53.09;99669.23;109481;1251;74677;-67
2023/08/18 10:18:24;;;;;;;3.80;1.90;;;;;;;32.41;52.47;99668.02;109515;1250;66414;-69
2023/08/18 10:20:52;;;;;;;5.60;1.80;;;;;;;31.97;53.80;99666.10;109444;1250;72594;-69
2023/08/18 10:23:19;;;;;;;2.30;2.00;;;;;;;31.47;54.57;99663.31;109403;1255;59218;-64
2023/08/18 10:25:49;;;;;;;2.10;1.90;;;;;;;30.95;55.79;99664.93;109262;1251;61678;-60
2023/08/18 10:28:19;;;;;;;3.90;2.10;;;;;;;30.48;59.64;99664.81;109451;1251;72354;-61
2023/08/18 10:31:07;;;;;;;3.90;1.80;;;;;;;30.37;61.11;99667.44;109495;1251;66729;-60
2023/08/18 10:33:38;;;;;;;3.80;1.70;;;;;;;30.19;59.40;99669.30;109607;1251;71384;-62
2023/08/18 10:36:05;;;;;;;1.90;1.70;;;;;;;29.85;60.22;99665.70;109674;1251;60262;-60
2023/08/18 10:38:41;;;;;;;1.70;1.60;;;;;;;29.56;62.15;99667.86;109500;1250;59146;-67
2023/08/18 10:41:08;;;;;;;3.40;2.00;;;;;;;29.53;65.65;99661.59;109729;1254;73147;-61
2023/08/18 10:43:42;;;;;;;2.50;1.80;;;;;;;29.63;66.10;99668.06;109568;1251;66378;-62
2023/08/18 10:46:11;;;;;;;1.40;1.30;;;;;;;29.67;64.82;99663.08;109711;1251;72663;-74
2023/08/18 10:48:37;;;;;;;4.70;2.10;;;;;;;29.65;64.01;99662.39;109663;1250;59601;-72
2023/08/18 10:51:04;;;;;;;5.20;2.10;;;;;;;29.64;64.19;99657.92;109632;1256;58908;-71
2023/08/18 10:53:36;;;;;;;2.40;1.70;;;;;;;29.69;64.20;99657.80;109719;1251;75288;-72
2023/08/18 10:56:04;;;;;;;2.10;1.80;;;;;;;29.86;63.30;99659.06;109622;1251;66290;-71
2023/08/18 10:58:32;;;;;;;3.10;1.70;;;;;;;29.96;61.86;99652.98;109708;1250;72622;-72
2023/08/18 11:00:59;;;;;;;3.40;1.80;;;;;;;29.98;61.99;99655.58;109478;1251;60307;-72
2023/08/18 11:03:25;;;;;;;3.40;1.90;;;;;;;29.93;62.49;99649.98;109502;1251;60150;-69
2023/08/18 11:05:52;;;;;;;4.60;1.80;;;;;;;29.88;62.09;99649.45;109665;1250;73035;-69
2023/08/18 11:08:19;;;;;;;5.20;2.00;;;;;;;29.75;62.96;99652.15;109638;1251;66773;-69
2023/08/18 11:10:45;;;;;;;2.80;1.90;;;;;;;29.70;63.96;99646.88;109568;1251;72378;-70
2023/08/18 11:13:26;;;;;;;1.80;1.70;;;;;;;29.77;66.26;99647.53;109642;1253;58938;-71
2023/08/18 11:15:53;;;;;;;2.50;1.50;;;;;;;29.79;67.16;99645.38;109536;1250;58949;-70
2023/08/18 11:18:21;;;;;;;6.20;1.90;;;;;;;29.69;65.66;99647.00;109549;1251;74704;-71
2023/08/18 11:20:48;;;;;;;2.90;1.60;;;;;;;29.56;65.50;99651.85;109456;1251;66293;-72
2023/08/18 11:23:14;;;;;;;1.90;1.40;;;;;;;29.49;66.34;99656.04;109499;1250;72538;-71